createdAt,value
2016-09-08T00:00:20.607Z,954.62
2016-09-08T00:01:19.910Z,954.62
2016-09-08T00:02:19.468Z,954.59
2016-09-08T00:03:20.235Z,954.60
2016-09-08T00:04:20.338Z,954.56
2016-09-08T00:05:20.491Z,954.55
2016-09-08T00:06:22.629Z,954.50
2016-09-08T00:10:27.737Z,954.50
2016-09-08T00:11:20.864Z,954.46
2016-09-08T00:12:21.448Z,954.47
2016-09-08T00:13:27.683Z,954.45
2016-09-08T00:14:19.977Z,954.46
2016-09-08T00:15:31.179Z,954.45
2016-09-08T00:16:27.489Z,954.44
2016-09-08T00:17:37.946Z,954.39
2016-09-08T00:18:15.688Z,954.39
2016-09-08T00:19:19.965Z,954.40
2016-09-08T00:20:22.689Z,954.39
2016-09-08T00:21:14.757Z,954.42
2016-09-08T00:22:22.208Z,954.40
2016-09-08T00:23:16.174Z,954.41
2016-09-08T00:24:20.226Z,954.40
2016-09-08T00:25:20.499Z,954.39
2016-09-08T00:26:20.513Z,954.40
2016-09-08T00:27:20.454Z,954.39
2016-09-08T00:28:28.216Z,954.36
2016-09-08T00:29:21.401Z,954.34
2016-09-08T00:30:20.469Z,954.34
2016-09-08T00:31:20.579Z,954.37
2016-09-08T00:32:20.955Z,954.35
2016-09-08T00:33:21.846Z,954.30
2016-09-08T00:34:20.564Z,954.25
2016-09-08T00:35:21.770Z,954.29
2016-09-08T00:36:19.958Z,954.24
2016-09-08T00:37:20.834Z,954.20
2016-09-08T00:38:25.690Z,954.21
2016-09-08T00:39:19.985Z,954.20
2016-09-08T00:40:20.265Z,954.16
2016-09-08T00:41:26.469Z,954.15
2016-09-08T00:42:22.488Z,954.16
2016-09-08T00:43:21.061Z,954.12
2016-09-08T00:44:14.039Z,954.18
2016-09-08T00:45:34.923Z,954.16
2016-09-08T00:46:15.221Z,954.19
2016-09-08T00:47:25.798Z,954.17
2016-09-08T00:48:22.132Z,954.14
2016-09-08T00:49:20.062Z,954.19
2016-09-08T00:50:23.715Z,954.17
2016-09-08T00:51:26.205Z,954.19
2016-09-08T00:52:27.080Z,954.14
2016-09-08T00:53:28.308Z,954.18
2016-09-08T00:54:27.320Z,954.16
2016-09-08T00:55:22.395Z,954.13
2016-09-08T00:56:21.286Z,954.16
2016-09-08T00:57:20.463Z,954.14
2016-09-08T00:58:20.525Z,954.17
2016-09-08T00:59:22.199Z,954.14
2016-09-08T01:00:37.916Z,954.15
2016-09-08T01:01:20.463Z,954.15
2016-09-08T01:02:22.425Z,954.18
2016-09-08T01:03:20.917Z,954.15
2016-09-08T01:04:16.225Z,954.17
2016-09-08T01:05:31.756Z,954.18
2016-09-08T01:06:26.818Z,954.16
2016-09-08T01:07:26.900Z,954.23
2016-09-08T01:08:20.616Z,954.20
2016-09-08T01:09:26.474Z,954.17
2016-09-08T01:10:20.719Z,954.22
2016-09-08T01:11:19.906Z,954.18
2016-09-08T01:12:20.555Z,954.17
2016-09-08T01:13:21.336Z,954.21
2016-09-08T01:14:17.505Z,954.18
2016-09-08T01:15:48.706Z,954.19
2016-09-08T01:16:36.639Z,954.19
2016-09-08T01:18:26.436Z,954.19
2016-09-08T01:19:28.527Z,954.24
2016-09-08T01:20:26.566Z,954.25
2016-09-08T01:21:32.512Z,954.20
2016-09-08T01:22:20.286Z,954.23
2016-09-08T01:23:19.351Z,954.20
2016-09-08T01:24:20.454Z,954.16
2016-09-08T01:25:27.968Z,954.21
2016-09-08T01:26:23.429Z,954.19
2016-09-08T01:27:21.214Z,954.19
2016-09-08T01:28:22.727Z,954.18
2016-09-08T01:29:20.356Z,954.22
2016-09-08T01:30:26.441Z,954.21
2016-09-08T01:31:22.245Z,954.18
2016-09-08T01:32:21.150Z,954.16
2016-09-08T01:33:22.975Z,954.13
2016-09-08T01:34:28.053Z,954.15
2016-09-08T01:35:21.269Z,954.14
2016-09-08T01:36:26.305Z,954.10
2016-09-08T01:37:20.092Z,954.10
2016-09-08T01:38:21.609Z,954.12
2016-09-08T01:39:28.769Z,954.10
2016-09-08T01:40:21.484Z,954.10
2016-09-08T01:41:21.225Z,954.10
2016-09-08T01:42:20.328Z,954.12
2016-09-08T01:43:20.360Z,954.11
2016-09-08T01:44:20.285Z,954.12
2016-09-08T01:45:20.480Z,954.12
2016-09-08T01:46:26.166Z,954.16
2016-09-08T01:47:23.066Z,954.19
2016-09-08T01:48:32.956Z,954.15
2016-09-08T01:49:21.015Z,954.16
2016-09-08T01:50:21.079Z,954.17
2016-09-08T01:51:20.125Z,954.15
2016-09-08T01:52:27.260Z,954.16
2016-09-08T01:53:21.482Z,954.18
2016-09-08T01:54:33.670Z,954.17
2016-09-08T01:55:20.726Z,954.13
2016-09-08T01:56:21.482Z,954.17
2016-09-08T01:57:26.372Z,954.17
2016-09-08T01:58:20.404Z,954.14
2016-09-08T01:59:20.250Z,954.14
2016-09-08T02:00:26.853Z,954.14
2016-09-08T02:01:20.419Z,954.15
2016-09-08T02:02:29.176Z,954.16
2016-09-08T02:03:22.229Z,954.12
2016-09-08T02:04:26.247Z,954.15
2016-09-08T02:05:26.697Z,954.13
2016-09-08T02:06:28.433Z,954.13
2016-09-08T02:07:26.457Z,954.14
2016-09-08T02:08:22.871Z,954.16
2016-09-08T02:09:26.723Z,954.11
2016-09-08T02:11:22.169Z,954.17
2016-09-08T02:12:29.397Z,954.14
2016-09-08T02:13:22.065Z,954.15
2016-09-08T02:14:27.894Z,954.17
2016-09-08T02:15:20.803Z,954.18
2016-09-08T02:16:20.927Z,954.15
2016-09-08T02:17:21.868Z,954.19
2016-09-08T02:18:33.206Z,954.17
2016-09-08T02:19:20.523Z,954.19
2016-09-08T02:20:25.809Z,954.17
2016-09-08T02:21:20.482Z,954.14
2016-09-08T02:22:20.516Z,954.10
2016-09-08T02:23:28.389Z,954.13
2016-09-08T02:24:21.074Z,954.13
2016-09-08T02:25:21.647Z,954.11
2016-09-08T02:26:21.598Z,954.11
2016-09-08T02:27:21.385Z,954.08
2016-09-08T02:28:22.227Z,954.05
2016-09-08T02:29:21.235Z,954.05
2016-09-08T02:30:20.336Z,954.06
2016-09-08T02:31:26.347Z,954.02
2016-09-08T02:32:18.382Z,954.00
2016-09-08T02:33:21.577Z,954.05
2016-09-08T02:34:21.017Z,954.04
2016-09-08T02:35:33.416Z,954.05
2016-09-08T02:36:22.892Z,954.01
2016-09-08T02:37:28.911Z,954.01
2016-09-08T02:38:21.063Z,954.03
2016-09-08T02:39:20.670Z,954.02
2016-09-08T02:40:20.830Z,953.97
2016-09-08T02:41:26.965Z,954.03
2016-09-08T02:42:21.901Z,954.02
2016-09-08T02:43:20.785Z,954.04
2016-09-08T02:44:20.329Z,954.06
2016-09-08T02:45:27.947Z,954.09
2016-09-08T02:46:21.708Z,954.08
2016-09-08T02:47:21.489Z,954.07
2016-09-08T02:48:22.704Z,954.08
2016-09-08T02:49:20.173Z,954.05
2016-09-08T02:50:18.425Z,954.08
2016-09-08T02:51:21.903Z,954.06
2016-09-08T02:52:31.797Z,954.06
2016-09-08T02:53:20.794Z,954.06
2016-09-08T02:54:21.693Z,954.06
2016-09-08T02:55:20.261Z,954.05
2016-09-08T02:56:20.182Z,954.08
2016-09-08T02:57:18.516Z,954.04
2016-09-08T02:58:21.923Z,954.09
2016-09-08T02:59:20.579Z,954.03
2016-09-08T03:00:17.829Z,954.08
2016-09-08T03:01:21.671Z,954.04
2016-09-08T03:02:32.200Z,954.04
2016-09-08T03:03:21.801Z,954.01
2016-09-08T03:04:26.562Z,954.08
2016-09-08T03:05:20.645Z,954.10
2016-09-08T03:06:20.196Z,954.12
2016-09-08T03:07:28.020Z,954.10
2016-09-08T03:08:27.769Z,954.13
2016-09-08T03:09:21.583Z,954.11
2016-09-08T03:10:22.374Z,954.14
2016-09-08T03:11:24.414Z,954.05
2016-09-08T03:12:26.510Z,954.06
2016-09-08T03:13:27.535Z,954.07
2016-09-08T03:14:22.966Z,954.10
2016-09-08T03:15:32.547Z,954.04
2016-09-08T03:16:20.511Z,954.12
2016-09-08T03:17:20.612Z,954.05
2016-09-08T03:18:20.308Z,954.06
2016-09-08T03:19:21.107Z,954.13
2016-09-08T03:20:32.589Z,954.15
2016-09-08T03:21:16.731Z,954.14
2016-09-08T03:22:33.209Z,954.19
2016-09-08T03:23:21.621Z,954.22
2016-09-08T03:24:21.929Z,954.23
2016-09-08T03:25:24.633Z,954.20
2016-09-08T03:26:21.090Z,954.23
2016-09-08T03:27:21.214Z,954.23
2016-09-08T03:28:21.843Z,954.24
2016-09-08T03:29:22.590Z,954.22
2016-09-08T03:30:21.277Z,954.23
2016-09-08T03:31:20.610Z,954.20
2016-09-08T03:32:21.502Z,954.21
2016-09-08T03:33:21.866Z,954.18
2016-09-08T03:34:26.454Z,954.22
2016-09-08T03:35:21.796Z,954.22
2016-09-08T03:36:36.603Z,954.21
2016-09-08T03:37:21.616Z,954.21
2016-09-08T03:38:18.964Z,954.19
2016-09-08T03:39:18.454Z,954.22
2016-09-08T03:40:20.410Z,954.26
2016-09-08T03:41:25.596Z,954.23
2016-09-08T03:42:21.356Z,954.25
2016-09-08T03:43:18.776Z,954.25
2016-09-08T03:44:22.218Z,954.21
2016-09-08T03:45:15.551Z,954.20
2016-09-08T03:46:21.049Z,954.17
2016-09-08T03:47:20.632Z,954.20
2016-09-08T03:48:26.153Z,954.21
2016-09-08T03:49:23.430Z,954.21
2016-09-08T03:50:20.630Z,954.20
2016-09-08T03:51:20.624Z,954.25
2016-09-08T03:52:36.703Z,954.26
2016-09-08T03:53:22.261Z,954.26
2016-09-08T03:54:16.431Z,954.27
2016-09-08T03:55:27.235Z,954.25
2016-09-08T03:56:20.612Z,954.29
2016-09-08T03:57:28.260Z,954.28
2016-09-08T03:58:26.368Z,954.35
2016-09-08T03:59:21.211Z,954.31
2016-09-08T04:00:32.981Z,954.34
2016-09-08T04:01:22.731Z,954.31
2016-09-08T04:02:21.261Z,954.34
2016-09-08T04:04:16.796Z,954.32
2016-09-08T04:05:32.704Z,954.34
2016-09-08T04:06:49.943Z,954.34
2016-09-08T04:07:23.153Z,954.35
2016-09-08T04:08:28.653Z,954.32
2016-09-08T04:09:21.050Z,954.37
2016-09-08T04:10:21.232Z,954.39
2016-09-08T04:11:27.245Z,954.38
2016-09-08T04:13:20.739Z,954.42
2016-09-08T04:14:20.048Z,954.42
2016-09-08T04:15:20.744Z,954.44
2016-09-08T04:16:20.508Z,954.45
2016-09-08T04:17:20.627Z,954.45
2016-09-08T04:18:26.641Z,954.42
2016-09-08T04:19:16.657Z,954.40
2016-09-08T04:20:26.369Z,954.41
2016-09-08T04:21:27.705Z,954.41
2016-09-08T04:22:21.737Z,954.44
2016-09-08T04:23:20.343Z,954.42
2016-09-08T04:24:17.209Z,954.39
2016-09-08T04:25:20.566Z,954.36
2016-09-08T04:26:21.222Z,954.37
2016-09-08T04:27:28.934Z,954.39
2016-09-08T04:28:21.482Z,954.35
2016-09-08T04:29:25.190Z,954.38
2016-09-08T04:30:20.747Z,954.36
2016-09-08T04:31:20.414Z,954.39
2016-09-08T04:32:21.779Z,954.40
2016-09-08T04:33:25.805Z,954.40
2016-09-08T04:34:23.351Z,954.42
2016-09-08T04:35:38.846Z,954.44
2016-09-08T04:36:31.945Z,954.43
2016-09-08T04:37:32.007Z,954.45
2016-09-08T04:38:32.471Z,954.47
2016-09-08T04:39:26.456Z,954.44
2016-09-08T04:40:27.602Z,954.43
2016-09-08T04:41:28.430Z,954.42
2016-09-08T04:42:27.831Z,954.43
2016-09-08T04:43:25.951Z,954.43
2016-09-08T04:44:20.497Z,954.43
2016-09-08T04:45:17.531Z,954.42
2016-09-08T04:46:21.352Z,954.45
2016-09-08T04:47:21.353Z,954.47
2016-09-08T04:48:21.443Z,954.50
2016-09-08T04:49:26.669Z,954.46
2016-09-08T04:50:41.119Z,954.48
2016-09-08T04:51:33.410Z,954.47
2016-09-08T04:52:20.680Z,954.51
2016-09-08T04:53:27.866Z,954.51
2016-09-08T04:54:21.741Z,954.48
2016-09-08T04:55:17.963Z,954.50
2016-09-08T04:56:27.253Z,954.53
2016-09-08T04:57:20.294Z,954.51
2016-09-08T04:58:19.863Z,954.54
2016-09-08T04:59:21.792Z,954.54
2016-09-08T05:00:18.280Z,954.58
2016-09-08T05:01:20.142Z,954.61
2016-09-08T05:02:44.491Z,954.57
2016-09-08T05:03:16.883Z,954.57
2016-09-08T05:04:26.788Z,954.62
2016-09-08T05:05:33.124Z,954.62
2016-09-08T05:06:36.809Z,954.60
2016-09-08T05:07:31.513Z,954.60
2016-09-08T05:08:26.963Z,954.58
2016-09-08T05:09:26.719Z,954.59
2016-09-08T05:10:27.205Z,954.60
2016-09-08T05:11:26.140Z,954.63
2016-09-08T05:12:26.140Z,954.58
2016-09-08T05:13:20.126Z,954.63
2016-09-08T05:14:25.710Z,954.60
2016-09-08T05:15:21.155Z,954.62
2016-09-08T05:16:20.708Z,954.59
2016-09-08T05:17:19.227Z,954.58
2016-09-08T05:18:24.242Z,954.61
2016-09-08T05:19:15.897Z,954.62
2016-09-08T05:20:22.984Z,954.64
2016-09-08T05:21:21.856Z,954.64
2016-09-08T05:22:20.493Z,954.66
2016-09-08T05:23:20.874Z,954.70
2016-09-08T05:24:26.525Z,954.71
2016-09-08T05:25:20.855Z,954.75
2016-09-08T05:26:10.571Z,954.72
2016-09-08T05:27:14.625Z,954.78
2016-09-08T05:28:20.772Z,954.79
2016-09-08T05:29:16.153Z,954.78
2016-09-08T05:30:21.626Z,954.76
2016-09-08T05:31:20.655Z,954.74
2016-09-08T05:32:26.584Z,954.71
2016-09-08T05:33:16.342Z,954.74
2016-09-08T05:34:26.137Z,954.74
2016-09-08T05:35:23.227Z,954.74
2016-09-08T05:36:21.068Z,954.79
2016-09-08T05:37:25.737Z,954.81
2016-09-08T05:38:15.762Z,954.81
2016-09-08T05:39:20.527Z,954.82
2016-09-08T05:40:32.134Z,954.80
2016-09-08T05:41:16.264Z,954.80
2016-09-08T05:42:21.791Z,954.84
2016-09-08T05:43:26.390Z,954.80
2016-09-08T05:44:15.943Z,954.78
2016-09-08T05:45:27.339Z,954.81
2016-09-08T05:46:26.543Z,954.81
2016-09-08T05:47:15.299Z,954.81
2016-09-08T05:48:20.547Z,954.82
2016-09-08T05:49:20.493Z,954.82
2016-09-08T05:50:28.139Z,954.82
2016-09-08T05:51:20.070Z,954.80
2016-09-08T05:52:21.819Z,954.80
2016-09-08T05:53:20.885Z,954.82
2016-09-08T05:54:20.724Z,954.78
2016-09-08T05:55:16.306Z,954.83
2016-09-08T05:56:21.752Z,954.81
2016-09-08T05:57:15.296Z,954.82
2016-09-08T05:58:21.501Z,954.89
2016-09-08T05:59:10.061Z,954.86
2016-09-08T06:00:09.806Z,954.85
2016-09-08T06:01:32.016Z,954.87
2016-09-08T06:02:20.324Z,954.90
2016-09-08T06:03:27.231Z,954.88
2016-09-08T06:05:22.480Z,954.86
2016-09-08T06:06:21.425Z,954.85
2016-09-08T06:07:20.421Z,954.81
2016-09-08T06:08:21.527Z,954.83
2016-09-08T06:09:21.361Z,954.83
2016-09-08T06:10:21.047Z,954.81
2016-09-08T06:11:22.468Z,954.80
2016-09-08T06:12:20.175Z,954.83
2016-09-08T06:13:20.606Z,954.80
2016-09-08T06:14:25.838Z,954.83
2016-09-08T06:15:21.854Z,954.78
2016-09-08T06:16:20.577Z,954.77
2016-09-08T06:17:20.916Z,954.79
2016-09-08T06:18:20.723Z,954.80
2016-09-08T06:19:21.429Z,954.79
2016-09-08T06:20:25.835Z,954.77
2016-09-08T06:21:21.560Z,954.83
2016-09-08T06:22:20.369Z,954.80
2016-09-08T06:23:20.630Z,954.81
2016-09-08T06:24:31.565Z,954.80
2016-09-08T06:25:26.737Z,954.82
2016-09-08T06:26:20.626Z,954.80
2016-09-08T06:27:20.775Z,954.85
2016-09-08T06:28:13.048Z,954.87
2016-09-08T06:29:12.652Z,954.86
2016-09-08T06:30:14.438Z,954.88
2016-09-08T06:31:17.484Z,954.88
2016-09-08T06:32:27.148Z,954.86
2016-09-08T06:33:20.700Z,954.88
2016-09-08T06:34:20.230Z,954.89
2016-09-08T06:35:21.432Z,954.88
2016-09-08T06:36:22.840Z,954.94
2016-09-08T06:37:21.120Z,954.91
2016-09-08T06:38:20.910Z,954.90
2016-09-08T06:39:20.043Z,954.92
2016-09-08T06:40:20.434Z,954.90
2016-09-08T06:41:20.901Z,954.91
2016-09-08T06:42:20.766Z,954.94
2016-09-08T06:43:16.111Z,954.90
2016-09-08T06:44:26.605Z,954.87
2016-09-08T06:45:20.902Z,954.89
2016-09-08T06:46:25.419Z,954.88
2016-09-08T06:47:25.395Z,954.86
2016-09-08T06:48:20.689Z,954.85
2016-09-08T06:49:11.383Z,954.90
2016-09-08T06:50:23.418Z,954.88
2016-09-08T06:51:24.395Z,954.92
2016-09-08T06:52:20.929Z,954.93
2016-09-08T06:53:28.640Z,954.92
2016-09-08T06:54:27.523Z,954.91
2016-09-08T06:55:27.420Z,954.93
2016-09-08T06:56:21.488Z,954.93
2016-09-08T06:57:25.751Z,954.96
2016-09-08T06:58:20.476Z,954.93
2016-09-08T06:59:20.163Z,954.94
2016-09-08T07:00:14.912Z,954.93
2016-09-08T07:01:18.481Z,954.90
2016-09-08T07:02:38.925Z,954.93
2016-09-08T07:03:21.041Z,954.90
2016-09-08T07:04:21.156Z,954.89
2016-09-08T07:05:24.170Z,954.90
2016-09-08T07:06:27.422Z,954.86
2016-09-08T07:07:26.590Z,954.91
2016-09-08T07:08:26.508Z,954.92
2016-09-08T07:09:21.200Z,954.88
2016-09-08T07:10:20.977Z,954.84
2016-09-08T07:11:21.291Z,954.87
2016-09-08T07:12:26.370Z,954.89
2016-09-08T07:13:28.476Z,954.88
2016-09-08T07:14:26.466Z,954.89
2016-09-08T07:15:20.974Z,954.91
2016-09-08T07:16:26.852Z,954.94
2016-09-08T07:17:38.344Z,954.98
2016-09-08T07:18:20.496Z,954.98
2016-09-08T07:19:30.153Z,954.97
2016-09-08T07:20:39.163Z,954.96
2016-09-08T07:21:16.192Z,954.98
2016-09-08T07:22:29.306Z,955.00
2016-09-08T07:23:26.356Z,954.99
2016-09-08T07:24:27.743Z,954.98
2016-09-08T07:25:21.520Z,955.01
2016-09-08T07:28:21.103Z,955.05
2016-09-08T07:31:18.246Z,955.05
2016-09-08T07:32:21.377Z,955.04
2016-09-08T07:33:15.793Z,955.07
2016-09-08T07:34:25.273Z,955.08
2016-09-08T07:35:25.166Z,955.04
2016-09-08T07:36:19.646Z,955.07
2016-09-08T07:37:20.196Z,955.05
2016-09-08T07:38:18.265Z,955.09
2016-09-08T07:39:26.312Z,955.05
2016-09-08T07:40:18.513Z,955.06
2016-09-08T07:41:21.063Z,955.04
2016-09-08T07:43:20.783Z,955.07
2016-09-08T07:44:26.348Z,955.05
2016-09-08T07:45:15.500Z,954.99
2016-09-08T07:46:20.903Z,955.00
2016-09-08T07:47:24.051Z,955.01
2016-09-08T07:48:21.075Z,955.00
2016-09-08T07:49:26.968Z,955.00
2016-09-08T07:50:19.041Z,955.02
2016-09-08T07:51:21.610Z,955.04
2016-09-08T07:52:20.997Z,955.09
2016-09-08T07:53:28.109Z,955.06
2016-09-08T07:54:19.583Z,955.06
2016-09-08T07:55:27.966Z,955.09
2016-09-08T07:56:28.096Z,955.05
2016-09-08T07:57:29.039Z,955.04
2016-09-08T07:58:21.606Z,955.07
2016-09-08T07:59:39.327Z,955.05
2016-09-08T08:00:21.601Z,955.06
2016-09-08T08:01:38.304Z,955.06
2016-09-08T08:02:28.378Z,955.09
2016-09-08T08:03:22.953Z,955.10
2016-09-08T08:05:19.345Z,955.09
2016-09-08T08:06:26.447Z,955.12
2016-09-08T08:07:36.230Z,955.14
2016-09-08T08:08:21.118Z,955.12
2016-09-08T08:09:24.230Z,955.14
2016-09-08T08:10:20.614Z,955.19
2016-09-08T08:11:25.588Z,955.12
2016-09-08T08:12:23.341Z,955.12
2016-09-08T08:13:20.383Z,955.11
2016-09-08T08:14:20.743Z,955.11
2016-09-08T08:15:21.801Z,955.12
2016-09-08T08:17:21.220Z,955.20
2016-09-08T08:18:27.195Z,955.14
2016-09-08T08:19:21.403Z,955.17
2016-09-08T08:31:21.130Z,955.04
2016-09-08T08:32:20.707Z,955.01
2016-09-08T08:33:21.188Z,955.03
2016-09-08T08:34:23.251Z,955.05
2016-09-08T08:35:18.668Z,955.06
2016-09-08T08:36:19.826Z,955.06
2016-09-08T08:37:26.610Z,955.04
2016-09-08T08:38:21.033Z,955.04
2016-09-08T08:39:20.906Z,955.04
2016-09-08T08:40:20.790Z,955.05
2016-09-08T08:41:32.222Z,954.99
2016-09-08T08:42:32.114Z,954.97
2016-09-08T08:43:26.318Z,954.99
2016-09-08T08:44:22.361Z,954.96
2016-09-08T08:45:29.597Z,954.98
2016-09-08T08:46:26.507Z,954.96
2016-09-08T08:47:20.152Z,954.93
2016-09-08T08:48:19.518Z,954.96
2016-09-08T08:49:22.342Z,954.94
2016-09-08T08:51:22.226Z,954.97
2016-09-08T08:52:27.850Z,954.94
2016-09-08T08:53:26.581Z,954.94
2016-09-08T08:54:21.633Z,954.91
2016-09-08T08:55:27.771Z,954.95
2016-09-08T08:56:21.263Z,954.93
2016-09-08T08:57:26.275Z,954.94
2016-09-08T08:59:27.821Z,954.93
2016-09-08T09:02:28.286Z,954.92
2016-09-08T09:04:20.731Z,954.91
2016-09-08T09:05:30.053Z,954.88
2016-09-08T09:06:16.068Z,954.91
2016-09-08T09:07:36.852Z,954.91
2016-09-08T09:08:20.654Z,954.89
2016-09-08T09:09:26.005Z,954.89
2016-09-08T09:10:16.267Z,954.90
2016-09-08T09:11:32.834Z,954.85
2016-09-08T09:12:27.838Z,954.89
2016-09-08T09:14:23.325Z,954.88
2016-09-08T09:15:21.950Z,954.93
2016-09-08T09:18:31.993Z,954.88
2016-09-08T09:19:21.751Z,954.84
2016-09-08T09:20:26.683Z,954.84
2016-09-08T09:22:28.683Z,954.80
2016-09-08T09:23:27.750Z,954.81
2016-09-08T09:24:20.503Z,954.75
2016-09-08T09:25:21.130Z,954.79
2016-09-08T09:26:26.153Z,954.77
2016-09-08T09:27:26.195Z,954.77
2016-09-08T09:28:21.400Z,954.74
2016-09-08T09:29:16.079Z,954.73
2016-09-08T09:30:31.148Z,954.71
2016-09-08T09:31:21.187Z,954.69
2016-09-08T09:32:32.690Z,954.68
2016-09-08T09:33:20.699Z,954.66
2016-09-08T09:34:21.184Z,954.65
2016-09-08T09:35:25.091Z,954.67
2016-09-08T09:36:32.154Z,954.62
2016-09-08T09:37:20.950Z,954.61
2016-09-08T09:38:26.545Z,954.61
2016-09-08T09:39:21.698Z,954.58
2016-09-08T09:41:21.226Z,954.56
2016-09-08T09:41:32.281Z,954.60
2016-09-08T09:42:23.165Z,954.53
2016-09-08T09:43:21.463Z,954.52
2016-09-08T09:44:37.923Z,954.56
2016-09-08T09:45:21.191Z,954.57
2016-09-08T09:46:26.751Z,954.56
2016-09-08T09:47:21.231Z,954.62
2016-09-08T09:48:21.203Z,954.62
2016-09-08T09:49:16.775Z,954.61
2016-09-08T09:51:32.148Z,954.58
2016-09-08T09:52:27.806Z,954.59
2016-09-08T09:53:31.094Z,954.63
2016-09-08T09:54:20.592Z,954.56
2016-09-08T09:55:21.230Z,954.55
2016-09-08T09:56:32.113Z,954.53
2016-09-08T09:57:17.932Z,954.55
2016-09-08T09:58:18.215Z,954.54
2016-09-08T09:59:33.347Z,954.53
2016-09-08T10:00:26.508Z,954.53
2016-09-08T10:01:21.271Z,954.54
2016-09-08T10:02:26.729Z,954.55
2016-09-08T10:03:26.848Z,954.54
2016-09-08T10:04:26.922Z,954.55
2016-09-08T10:05:23.918Z,954.50
2016-09-08T10:06:13.507Z,954.51
2016-09-08T10:07:21.223Z,954.50
2016-09-08T10:08:21.421Z,954.49
2016-09-08T10:09:21.426Z,954.47
2016-09-08T10:10:26.187Z,954.51
2016-09-08T10:11:16.163Z,954.55
2016-09-08T10:12:27.722Z,954.52
2016-09-08T10:13:21.236Z,954.54
2016-09-08T10:14:16.684Z,954.58
2016-09-08T10:15:21.232Z,954.53
2016-09-08T10:16:27.157Z,954.55
2016-09-08T10:17:20.921Z,954.57
2016-09-08T10:19:27.184Z,954.52
2016-09-08T10:20:20.765Z,954.51
2016-09-08T10:21:25.466Z,954.55
2016-09-08T10:22:26.177Z,954.54
2016-09-08T10:23:27.269Z,954.53
2016-09-08T10:24:28.376Z,954.52
2016-09-08T10:25:30.197Z,954.53
2016-09-08T10:30:17.102Z,954.50
2016-09-08T10:31:26.317Z,954.49
2016-09-08T10:32:28.422Z,954.47
2016-09-08T10:33:20.730Z,954.43
2016-09-08T10:34:26.405Z,954.45
2016-09-08T10:35:21.111Z,954.45
2016-09-08T10:36:27.251Z,954.44
2016-09-08T10:38:10.663Z,954.39
2016-09-08T10:39:21.814Z,954.39
2016-09-08T10:42:29.023Z,954.40
2016-09-08T10:43:21.944Z,954.34
2016-09-08T10:44:34.708Z,954.35
2016-09-08T10:45:20.505Z,954.30
2016-09-08T10:46:38.431Z,954.30
2016-09-08T10:47:17.627Z,954.30
2016-09-08T10:48:27.079Z,954.31
2016-09-08T10:49:18.938Z,954.32
2016-09-08T10:50:27.778Z,954.30
2016-09-08T10:51:21.007Z,954.31
2016-09-08T10:52:29.035Z,954.32
2016-09-08T10:53:16.238Z,954.31
2016-09-08T10:54:16.824Z,954.32
2016-09-08T10:55:27.111Z,954.29
2016-09-08T10:56:33.302Z,954.29
2016-09-08T10:57:32.789Z,954.32
2016-09-08T10:58:31.802Z,954.30
2016-09-08T10:59:28.518Z,954.26
2016-09-08T11:00:54.618Z,954.22
2016-09-08T11:01:25.780Z,954.26
2016-09-08T11:02:21.333Z,954.27
2016-09-08T11:03:20.704Z,954.26
2016-09-08T11:04:27.138Z,954.26
2016-09-08T11:05:27.674Z,954.27
2016-09-08T11:06:33.545Z,954.30
2016-09-08T11:08:25.391Z,954.26
2016-09-08T11:09:27.526Z,954.35
2016-09-08T11:11:16.071Z,954.29
2016-09-08T11:12:28.650Z,954.31
2016-09-08T11:13:26.830Z,954.28
2016-09-08T11:14:24.164Z,954.31
2016-09-08T11:15:28.290Z,954.35
2016-09-08T11:17:28.493Z,954.33
2016-09-08T11:18:20.806Z,954.36
2016-09-08T11:19:28.879Z,954.33
2016-09-08T11:20:25.561Z,954.40
2016-09-08T11:21:27.709Z,954.34
2016-09-08T11:22:27.527Z,954.33
2016-09-08T11:23:26.701Z,954.28
2016-09-08T11:24:21.415Z,954.34
2016-09-08T11:25:16.729Z,954.29
2016-09-08T11:26:27.098Z,954.31
2016-09-08T11:27:22.299Z,954.34
2016-09-08T11:28:24.557Z,954.30
2016-09-08T11:29:22.613Z,954.31
2016-09-08T11:30:21.562Z,954.32
2016-09-08T11:31:27.059Z,954.32
2016-09-08T11:32:27.116Z,954.31
2016-09-08T11:33:21.190Z,954.33
2016-09-08T11:34:21.159Z,954.26
2016-09-08T11:35:33.640Z,954.28
2016-09-08T11:36:18.645Z,954.28
2016-09-08T11:37:37.012Z,954.30
2016-09-08T11:38:27.196Z,954.29
2016-09-08T11:39:21.213Z,954.29
2016-09-08T11:40:28.035Z,954.30
2016-09-08T11:41:21.390Z,954.28
2016-09-08T11:42:21.909Z,954.31
2016-09-08T11:43:21.355Z,954.29
2016-09-08T11:44:21.173Z,954.25
2016-09-08T11:45:27.986Z,954.24
2016-09-08T11:46:22.562Z,954.20
2016-09-08T11:47:21.183Z,954.23
2016-09-08T11:48:21.384Z,954.28
2016-09-08T11:49:21.426Z,954.20
2016-09-08T11:50:27.570Z,954.22
2016-09-08T11:51:21.223Z,954.22
2016-09-08T11:52:17.297Z,954.20
2016-09-08T11:53:16.650Z,954.22
2016-09-08T11:54:16.145Z,954.21
2016-09-08T11:55:21.281Z,954.20
2016-09-08T11:56:21.037Z,954.23
2016-09-08T11:57:27.775Z,954.20
2016-09-08T11:58:19.174Z,954.21
2016-09-08T12:00:17.262Z,954.12
2016-09-08T12:01:21.248Z,954.11
2016-09-08T12:02:18.399Z,954.10
2016-09-08T12:03:21.797Z,954.10
2016-09-08T12:04:21.651Z,954.14
2016-09-08T12:05:16.240Z,954.10
2016-09-08T12:06:21.617Z,954.10
2016-09-08T12:07:31.661Z,954.12
2016-09-08T12:08:31.772Z,954.11
2016-09-08T12:09:31.599Z,954.08
2016-09-08T12:10:22.167Z,954.07
2016-09-08T12:11:15.977Z,954.06
2016-09-08T12:12:32.192Z,954.09
2016-09-08T12:13:31.230Z,954.04
2016-09-08T12:14:22.721Z,954.01
2016-09-08T12:15:22.367Z,954.03
2016-09-08T12:16:16.570Z,954.06
2016-09-08T12:17:27.185Z,954.03
2016-09-08T12:18:16.712Z,954.05
2016-09-08T12:19:22.488Z,954.01
2016-09-08T12:20:26.719Z,953.96
2016-09-08T12:21:21.367Z,953.98
2016-09-08T12:22:21.850Z,953.96
2016-09-08T12:23:27.896Z,953.95
2016-09-08T12:24:27.030Z,953.97
2016-09-08T12:25:19.406Z,954.00
2016-09-08T12:26:22.548Z,953.98
2016-09-08T12:27:27.368Z,954.00
2016-09-08T12:28:24.402Z,953.99
2016-09-08T12:29:32.401Z,954.01
2016-09-08T12:30:26.608Z,953.97
2016-09-08T12:31:27.815Z,953.99
2016-09-08T12:32:32.875Z,954.00
2016-09-08T12:33:21.791Z,954.01
2016-09-08T12:34:26.559Z,953.96
2016-09-08T12:35:24.912Z,953.97
2016-09-08T12:36:22.234Z,953.93
2016-09-08T12:37:26.416Z,953.96
2016-09-08T12:38:26.841Z,953.97
2016-09-08T12:40:28.051Z,953.95
2016-09-08T12:41:28.111Z,953.92
2016-09-08T12:45:24.256Z,953.91
2016-09-08T12:46:21.435Z,953.90
2016-09-08T12:47:21.743Z,953.95
2016-09-08T12:48:34.391Z,953.96
2016-09-08T12:50:19.690Z,953.98
2016-09-08T12:51:40.501Z,953.96
2016-09-08T12:52:15.089Z,953.98
2016-09-08T12:53:21.122Z,954.00
2016-09-08T12:54:21.128Z,953.97
2016-09-08T12:55:25.199Z,954.00
2016-09-08T12:56:22.064Z,954.00
2016-09-08T12:57:32.619Z,954.05
2016-09-08T12:58:26.215Z,954.00
2016-09-08T12:59:22.006Z,954.01
2016-09-08T13:00:21.719Z,954.01
2016-09-08T13:01:16.607Z,954.00
2016-09-08T13:02:32.632Z,953.98
2016-09-08T13:03:21.017Z,954.05
2016-09-08T13:06:32.566Z,953.99
2016-09-08T13:07:19.981Z,954.01
2016-09-08T13:08:17.230Z,953.97
2016-09-08T13:09:26.133Z,954.00
2016-09-08T13:11:18.670Z,953.96
2016-09-08T13:12:23.634Z,953.98
2016-09-08T13:13:24.757Z,953.88
2016-09-08T13:14:17.907Z,953.95
2016-09-08T13:16:26.132Z,953.86
2016-09-08T13:17:32.204Z,953.87
2016-09-08T13:18:27.878Z,953.87
2016-09-08T13:19:19.234Z,953.86
2016-09-08T13:20:27.218Z,953.87
2016-09-08T13:21:21.365Z,953.88
2016-09-08T13:22:17.815Z,953.87
2016-09-08T13:23:21.957Z,953.81
2016-09-08T13:26:16.740Z,953.76
2016-09-08T13:27:18.116Z,953.72